CheckWX is a tool to help pilots better visualize weather data.  It is not intended as a substitute for an official pre-flight weather briefing.

21:36:28 UTC

LFOP TAF
Rouen Airport
Rouen/Vallée de Seine, France
TAF LFOP 201700Z 2018/2118 VRB02KT CAVOK BECMG 2021/2024 2000 BR PROB30 2100/2107 0500 FG VV/// BECMG 2107/2110 9999 NSW

Mar-20@
18:00 UTC

Mar-20 @ 18:00 UTC

Mar-20@
21:00 UTC

Mar-20 @ 21:00 UTC

TAF LFOP 201700Z 2018/2118 VRB02KT CAVOK

Expired

Wind
  • Variable at 2 KTS
Conditions
No significant weather
Cloud Levels
  • No significant clouds

Mar-20@
21:00 UTC

Mar-20 @ 21:00 UTC

Mar-21@
07:00 UTC

Mar-21 @ 07:00 UTC

BECMG 2021/2024 2000 BR

Becoming

Becoming Conditions expected by Thu, Mar 21, 2019 @ 00:00 UTC

Wind
  • Variable at 2 KTS
Conditions
Mist
Cloud Levels
  • No significant clouds

Mar-21@
00:00 UTC

Mar-21 @ 00:00 UTC

Mar-21@
07:00 UTC

Mar-21 @ 07:00 UTC

PROB30 2100/2107 0500 FG VV///

Probable - 30% Likelihood

Probable - 30% Likelihood during this time.

Conditions
Fog

Mar-21@
07:00 UTC

Mar-21 @ 07:00 UTC

Mar-21@
18:00 UTC

Mar-21 @ 18:00 UTC

BECMG 2107/2110 9999 NSW

Becoming

Becoming Conditions expected by Thu, Mar 21, 2019 @ 10:00 UTC

Wind
  • Variable at 2 KTS
Conditions
No significant weather
Cloud Levels
  • No significant clouds